Terminal Aerodrome Forecast
Issued by NWS

Home | Current Version | Previous Version | Text Only | Print | Product List | Glossary On
Versions: 1 2 3 4 5 6 7 8 9 10 11 12 13 14 15 16
828
FTUS42 KMLB 202337
TAFSFB
TAF
KSFB 202337Z 2100/2124 09007KT P6SM SCT050 SCT250
     FM210500 05004KT P6SM SCT050 BKN100
     FM211400 08006KT P6SM VCSH BKN050 OVC080
     FM211700 11008KT 5SM -RA BKN035 OVC050
      TEMPO 2118/2122 3SM RA BR BKN020 OVC040
     FM212300 09005KT P6SM VCSH SCT040 OVC060=

USA.gov is the U.S. government's official web portal to all federal, state and local government web resources and services.